sensor_id;sensor_type;location;lat;lon;timestamp;P1;durP1;ratioP1;P2;durP2;ratioP2
15065;SDS011;7632;64.944;20.038;2024-03-02T00:01:32;4.20;;;2.53;;
15065;SDS011;7632;64.944;20.038;2024-03-02T00:03:59;3.60;;;2.30;;
15065;SDS011;7632;64.944;20.038;2024-03-02T00:06:25;2.97;;;2.53;;
15065;SDS011;7632;64.944;20.038;2024-03-02T00:08:55;2.87;;;2.30;;
15065;SDS011;7632;64.944;20.038;2024-03-02T00:11:24;4.13;;;2.33;;
15065;SDS011;7632;64.944;20.038;2024-03-02T00:13:53;3.10;;;2.27;;
15065;SDS011;7632;64.944;20.038;2024-03-02T00:16:20;2.37;;;2.00;;
15065;SDS011;7632;64.944;20.038;2024-03-02T00:18:47;4.20;;;2.20;;
15065;SDS011;7632;64.944;20.038;2024-03-02T00:21:14;2.67;;;2.37;;
15065;SDS011;7632;64.944;20.038;2024-03-02T00:23:43;2.97;;;2.17;;
15065;SDS011;7632;64.944;20.038;2024-03-02T00:26:11;3.40;;;2.00;;
15065;SDS011;7632;64.944;20.038;2024-03-02T00:28:38;3.00;;;2.37;;
15065;SDS011;7632;64.944;20.038;2024-03-02T00:31:10;2.63;;;2.20;;
15065;SDS011;7632;64.944;20.038;2024-03-02T00:33:39;3.57;;;2.07;;
15065;SDS011;7632;64.944;20.038;2024-03-02T00:36:07;2.57;;;2.20;;
15065;SDS011;7632;64.944;20.038;2024-03-02T00:38:40;3.23;;;2.40;;
15065;SDS011;7632;64.944;20.038;2024-03-02T00:41:15;2.90;;;2.00;;
15065;SDS011;7632;64.944;20.038;2024-03-02T00:43:47;3.50;;;2.23;;
15065;SDS011;7632;64.944;20.038;2024-03-02T00:46:19;2.57;;;1.93;;
15065;SDS011;7632;64.944;20.038;2024-03-02T00:48:51;4.77;;;2.13;;
15065;SDS011;7632;64.944;20.038;2024-03-02T00:51:20;2.27;;;1.80;;
15065;SDS011;7632;64.944;20.038;2024-03-02T00:53:48;2.20;;;1.90;;
15065;SDS011;7632;64.944;20.038;2024-03-02T00:56:15;3.30;;;1.80;;
15065;SDS011;7632;64.944;20.038;2024-03-02T00:58:43;3.33;;;1.90;;
15065;SDS011;7632;64.944;20.038;2024-03-02T01:01:09;3.90;;;1.90;;
15065;SDS011;7632;64.944;20.038;2024-03-02T01:03:38;1.83;;;1.63;;
15065;SDS011;7632;64.944;20.038;2024-03-02T01:06:06;2.63;;;1.90;;
15065;SDS011;7632;64.944;20.038;2024-03-02T01:08:34;2.50;;;1.70;;
15065;SDS011;7632;64.944;20.038;2024-03-02T01:11:01;2.40;;;1.80;;
15065;SDS011;7632;64.944;20.038;2024-03-02T01:13:28;2.13;;;1.80;;
15065;SDS011;7632;64.944;20.038;2024-03-02T01:15:55;1.67;;;1.53;;
15065;SDS011;7632;64.944;20.038;2024-03-02T01:18:22;1.70;;;1.47;;
15065;SDS011;7632;64.944;20.038;2024-03-02T01:20:51;1.77;;;1.60;;
15065;SDS011;7632;64.944;20.038;2024-03-02T01:23:20;1.77;;;1.67;;
15065;SDS011;7632;64.944;20.038;2024-03-02T01:25:47;2.20;;;1.67;;
15065;SDS011;7632;64.944;20.038;2024-03-02T01:28:14;2.17;;;1.80;;
15065;SDS011;7632;64.944;20.038;2024-03-02T01:30:41;2.40;;;1.70;;
15065;SDS011;7632;64.944;20.038;2024-03-02T01:33:08;3.13;;;1.63;;
15065;SDS011;7632;64.944;20.038;2024-03-02T01:35:35;3.60;;;1.90;;
15065;SDS011;7632;64.944;20.038;2024-03-02T01:38:03;2.27;;;1.50;;
15065;SDS011;7632;64.944;20.038;2024-03-02T01:40:32;1.90;;;1.70;;
15065;SDS011;7632;64.944;20.038;2024-03-02T01:42:59;1.97;;;1.50;;
15065;SDS011;7632;64.944;20.038;2024-03-02T01:45:27;3.10;;;1.77;;
15065;SDS011;7632;64.944;20.038;2024-03-02T06:38:39;2.10;;;1.83;;
15065;SDS011;7632;64.944;20.038;2024-03-02T06:41:06;2.30;;;1.93;;
15065;SDS011;7632;64.944;20.038;2024-03-02T06:43:33;2.67;;;1.70;;
15065;SDS011;7632;64.944;20.038;2024-03-02T06:45:59;3.20;;;1.60;;
15065;SDS011;7632;64.944;20.038;2024-03-02T06:48:26;2.63;;;2.07;;
15065;SDS011;7632;64.944;20.038;2024-03-02T06:50:55;3.47;;;1.73;;
15065;SDS011;7632;64.944;20.038;2024-03-02T06:53:23;2.13;;;1.80;;
15065;SDS011;7632;64.944;20.038;2024-03-02T06:55:51;1.90;;;1.70;;
15065;SDS011;7632;64.944;20.038;2024-03-02T06:58:18;2.90;;;2.20;;
15065;SDS011;7632;64.944;20.038;2024-03-02T07:00:45;2.17;;;1.80;;
15065;SDS011;7632;64.944;20.038;2024-03-02T07:03:12;2.70;;;2.10;;
15065;SDS011;7632;64.944;20.038;2024-03-02T07:05:39;2.50;;;2.03;;
15065;SDS011;7632;64.944;20.038;2024-03-02T07:08:06;2.67;;;1.90;;
15065;SDS011;7632;64.944;20.038;2024-03-02T07:10:33;2.73;;;1.90;;
15065;SDS011;7632;64.944;20.038;2024-03-02T07:13:01;2.47;;;2.07;;
15065;SDS011;7632;64.944;20.038;2024-03-02T07:15:28;2.07;;;1.87;;
15065;SDS011;7632;64.944;20.038;2024-03-02T07:18:08;3.50;;;2.20;;
15065;SDS011;7632;64.944;20.038;2024-03-02T07:20:35;2.10;;;1.90;;
15065;SDS011;7632;64.944;20.038;2024-03-02T07:23:04;2.30;;;2.00;;
15065;SDS011;7632;64.944;20.038;2024-03-02T07:25:31;3.17;;;2.00;;
15065;SDS011;7632;64.944;20.038;2024-03-02T07:27:57;2.30;;;2.10;;
15065;SDS011;7632;64.944;20.038;2024-03-02T07:30:26;2.87;;;1.97;;
15065;SDS011;7632;64.944;20.038;2024-03-02T07:32:53;3.37;;;2.10;;
15065;SDS011;7632;64.944;20.038;2024-03-02T07:35:19;3.03;;;2.23;;
15065;SDS011;7632;64.944;20.038;2024-03-02T07:37:47;3.20;;;1.80;;
15065;SDS011;7632;64.944;20.038;2024-03-02T07:40:14;2.53;;;2.00;;
15065;SDS011;7632;64.944;20.038;2024-03-02T07:42:41;3.47;;;2.40;;
15065;SDS011;7632;64.944;20.038;2024-03-02T07:45:08;2.47;;;2.13;;
15065;SDS011;7632;64.944;20.038;2024-03-02T07:47:36;2.40;;;1.70;;
15065;SDS011;7632;64.944;20.038;2024-03-02T07:50:03;2.20;;;2.00;;
15065;SDS011;7632;64.944;20.038;2024-03-02T07:52:32;1.97;;;1.70;;
15065;SDS011;7632;64.944;20.038;2024-03-02T07:54:59;2.80;;;2.10;;
15065;SDS011;7632;64.944;20.038;2024-03-02T07:57:26;2.63;;;2.13;;
15065;SDS011;7632;64.944;20.038;2024-03-02T07:59:53;2.97;;;2.20;;
15065;SDS011;7632;64.944;20.038;2024-03-02T08:02:19;2.53;;;1.90;;
15065;SDS011;7632;64.944;20.038;2024-03-02T08:04:48;2.40;;;2.00;;
15065;SDS011;7632;64.944;20.038;2024-03-02T08:07:15;2.67;;;1.90;;
15065;SDS011;7632;64.944;20.038;2024-03-02T08:09:42;2.37;;;1.93;;
15065;SDS011;7632;64.944;20.038;2024-03-02T08:12:09;2.10;;;1.90;;
15065;SDS011;7632;64.944;20.038;2024-03-02T08:14:36;2.87;;;2.00;;
15065;SDS011;7632;64.944;20.038;2024-03-02T08:17:03;2.67;;;2.00;;
15065;SDS011;7632;64.944;20.038;2024-03-02T08:19:34;2.63;;;1.87;;
15065;SDS011;7632;64.944;20.038;2024-03-02T08:22:03;2.50;;;2.10;;
15065;SDS011;7632;64.944;20.038;2024-03-02T08:24:30;2.07;;;1.87;;
15065;SDS011;7632;64.944;20.038;2024-03-02T08:26:57;2.30;;;1.90;;
15065;SDS011;7632;64.944;20.038;2024-03-02T08:29:25;3.10;;;2.30;;
15065;SDS011;7632;64.944;20.038;2024-03-02T08:31:52;3.13;;;2.27;;
15065;SDS011;7632;64.944;20.038;2024-03-02T08:34:19;4.40;;;2.30;;
15065;SDS011;7632;64.944;20.038;2024-03-02T08:36:46;3.03;;;2.03;;
15065;SDS011;7632;64.944;20.038;2024-03-02T08:39:15;3.20;;;2.40;;
15065;SDS011;7632;64.944;20.038;2024-03-02T08:41:42;3.10;;;2.47;;
15065;SDS011;7632;64.944;20.038;2024-03-02T08:44:10;3.23;;;2.40;;
15065;SDS011;7632;64.944;20.038;2024-03-02T08:46:38;3.43;;;2.57;;
15065;SDS011;7632;64.944;20.038;2024-03-02T08:49:05;2.77;;;2.43;;
15065;SDS011;7632;64.944;20.038;2024-03-02T08:51:32;3.20;;;2.47;;
15065;SDS011;7632;64.944;20.038;2024-03-02T08:53:59;5.77;;;2.47;;
15065;SDS011;7632;64.944;20.038;2024-03-02T08:56:28;3.13;;;2.37;;
15065;SDS011;7632;64.944;20.038;2024-03-02T08:58:54;3.27;;;2.73;;
15065;SDS011;7632;64.944;20.038;2024-03-02T09:01:21;3.47;;;2.77;;
15065;SDS011;7632;64.944;20.038;2024-03-02T09:03:48;3.17;;;2.80;;
15065;SDS011;7632;64.944;20.038;2024-03-02T09:06:15;3.03;;;2.33;;
15065;SDS011;7632;64.944;20.038;2024-03-02T09:08:43;3.00;;;2.70;;
15065;SDS011;7632;64.944;20.038;2024-03-02T09:11:10;3.17;;;2.43;;
15065;SDS011;7632;64.944;20.038;2024-03-02T09:13:38;3.50;;;2.60;;
15065;SDS011;7632;64.944;20.038;2024-03-02T09:16:06;3.27;;;2.60;;
15065;SDS011;7632;64.944;20.038;2024-03-02T09:18:36;3.20;;;2.67;;
15065;SDS011;7632;64.944;20.038;2024-03-02T09:21:03;5.93;;;3.03;;
15065;SDS011;7632;64.944;20.038;2024-03-02T09:23:30;5.00;;;3.40;;
15065;SDS011;7632;64.944;20.038;2024-03-02T09:25:57;3.03;;;2.50;;
15065;SDS011;7632;64.944;20.038;2024-03-02T09:28:24;3.10;;;2.43;;
15065;SDS011;7632;64.944;20.038;2024-03-02T09:30:53;3.27;;;2.97;;
15065;SDS011;7632;64.944;20.038;2024-03-02T09:33:19;3.20;;;2.80;;
15065;SDS011;7632;64.944;20.038;2024-03-02T09:35:46;3.47;;;2.80;;
15065;SDS011;7632;64.944;20.038;2024-03-02T12:38:55;4.03;;;2.87;;
15065;SDS011;7632;64.944;20.038;2024-03-02T12:41:22;3.83;;;3.00;;
15065;SDS011;7632;64.944;20.038;2024-03-02T12:43:49;3.30;;;2.93;;
15065;SDS011;7632;64.944;20.038;2024-03-02T12:46:16;3.37;;;2.70;;
15065;SDS011;7632;64.944;20.038;2024-03-02T12:48:42;3.23;;;2.47;;
15065;SDS011;7632;64.944;20.038;2024-03-02T12:51:09;3.63;;;2.73;;
15065;SDS011;7632;64.944;20.038;2024-03-02T12:53:36;4.00;;;2.83;;
15065;SDS011;7632;64.944;20.038;2024-03-02T12:56:05;4.13;;;2.70;;
15065;SDS011;7632;64.944;20.038;2024-03-02T12:58:38;3.10;;;2.50;;
15065;SDS011;7632;64.944;20.038;2024-03-02T13:01:06;4.37;;;3.00;;
15065;SDS011;7632;64.944;20.038;2024-03-02T13:03:35;2.73;;;2.53;;
15065;SDS011;7632;64.944;20.038;2024-03-02T13:06:02;3.10;;;2.80;;
15065;SDS011;7632;64.944;20.038;2024-03-02T13:08:29;3.00;;;2.70;;
15065;SDS011;7632;64.944;20.038;2024-03-02T13:10:56;3.30;;;2.57;;
15065;SDS011;7632;64.944;20.038;2024-03-02T13:13:25;3.40;;;2.90;;
15065;SDS011;7632;64.944;20.038;2024-03-02T13:15:54;3.23;;;2.80;;
15065;SDS011;7632;64.944;20.038;2024-03-02T13:18:21;2.77;;;2.53;;
15065;SDS011;7632;64.944;20.038;2024-03-02T13:20:48;2.93;;;2.50;;
15065;SDS011;7632;64.944;20.038;2024-03-02T13:23:16;3.37;;;2.63;;
15065;SDS011;7632;64.944;20.038;2024-03-02T13:25:42;3.23;;;2.80;;
15065;SDS011;7632;64.944;20.038;2024-03-02T13:28:12;5.73;;;3.10;;
15065;SDS011;7632;64.944;20.038;2024-03-02T13:30:40;3.70;;;3.03;;
15065;SDS011;7632;64.944;20.038;2024-03-02T13:33:07;4.00;;;3.30;;
15065;SDS011;7632;64.944;20.038;2024-03-02T13:35:34;4.10;;;3.17;;
15065;SDS011;7632;64.944;20.038;2024-03-02T13:38:01;3.80;;;3.03;;
15065;SDS011;7632;64.944;20.038;2024-03-02T13:40:28;6.50;;;3.20;;
15065;SDS011;7632;64.944;20.038;2024-03-02T13:43:00;3.70;;;3.10;;
15065;SDS011;7632;64.944;20.038;2024-03-02T13:45:27;4.07;;;2.90;;
15065;SDS011;7632;64.944;20.038;2024-03-02T13:47:55;4.30;;;3.10;;
15065;SDS011;7632;64.944;20.038;2024-03-02T13:50:22;3.40;;;2.60;;
15065;SDS011;7632;64.944;20.038;2024-03-02T13:52:49;3.93;;;3.20;;
15065;SDS011;7632;64.944;20.038;2024-03-02T13:55:16;4.47;;;2.73;;
15065;SDS011;7632;64.944;20.038;2024-03-02T13:57:42;5.23;;;3.07;;
15065;SDS011;7632;64.944;20.038;2024-03-02T14:00:10;4.53;;;2.97;;
15065;SDS011;7632;64.944;20.038;2024-03-02T14:02:37;3.93;;;3.03;;
15065;SDS011;7632;64.944;20.038;2024-03-02T14:05:06;4.40;;;2.87;;
15065;SDS011;7632;64.944;20.038;2024-03-02T14:07:36;3.93;;;2.93;;
15065;SDS011;7632;64.944;20.038;2024-03-02T14:10:04;4.60;;;3.20;;
15065;SDS011;7632;64.944;20.038;2024-03-02T14:12:31;4.40;;;3.50;;
15065;SDS011;7632;64.944;20.038;2024-03-02T14:14:58;4.83;;;3.20;;
15065;SDS011;7632;64.944;20.038;2024-03-02T14:17:27;3.50;;;2.93;;
15065;SDS011;7632;64.944;20.038;2024-03-02T14:19:54;5.30;;;3.13;;
15065;SDS011;7632;64.944;20.038;2024-03-02T14:22:23;4.97;;;3.40;;
15065;SDS011;7632;64.944;20.038;2024-03-02T14:24:50;5.03;;;3.40;;
15065;SDS011;7632;64.944;20.038;2024-03-02T14:27:17;5.93;;;3.20;;
15065;SDS011;7632;64.944;20.038;2024-03-02T14:29:44;5.13;;;3.30;;
15065;SDS011;7632;64.944;20.038;2024-03-02T14:32:11;5.07;;;3.40;;
15065;SDS011;7632;64.944;20.038;2024-03-02T14:34:37;4.43;;;3.47;;
15065;SDS011;7632;64.944;20.038;2024-03-02T14:37:04;5.47;;;3.67;;
15065;SDS011;7632;64.944;20.038;2024-03-02T14:39:33;4.67;;;3.00;;
15065;SDS011;7632;64.944;20.038;2024-03-02T14:42:00;4.43;;;3.20;;
15065;SDS011;7632;64.944;20.038;2024-03-02T14:44:27;4.00;;;3.13;;
15065;SDS011;7632;64.944;20.038;2024-03-02T14:46:54;4.60;;;3.60;;
15065;SDS011;7632;64.944;20.038;2024-03-02T14:49:22;7.30;;;3.57;;
15065;SDS011;7632;64.944;20.038;2024-03-02T14:51:49;5.43;;;3.50;;
15065;SDS011;7632;64.944;20.038;2024-03-02T14:54:16;4.97;;;3.43;;
15065;SDS011;7632;64.944;20.038;2024-03-02T14:56:44;4.20;;;3.70;;
15065;SDS011;7632;64.944;20.038;2024-03-02T14:59:11;4.40;;;3.30;;
15065;SDS011;7632;64.944;20.038;2024-03-02T15:01:38;5.10;;;3.53;;
15065;SDS011;7632;64.944;20.038;2024-03-02T15:04:04;4.53;;;3.27;;
15065;SDS011;7632;64.944;20.038;2024-03-02T15:06:31;4.80;;;3.57;;
15065;SDS011;7632;64.944;20.038;2024-03-02T15:08:58;4.20;;;3.07;;
15065;SDS011;7632;64.944;20.038;2024-03-02T15:11:26;5.37;;;3.00;;
15065;SDS011;7632;64.944;20.038;2024-03-02T15:13:55;4.37;;;3.53;;
15065;SDS011;7632;64.944;20.038;2024-03-02T15:16:21;4.60;;;3.40;;
15065;SDS011;7632;64.944;20.038;2024-03-02T15:18:48;5.53;;;3.30;;
15065;SDS011;7632;64.944;20.038;2024-03-02T15:21:15;4.07;;;3.37;;
15065;SDS011;7632;64.944;20.038;2024-03-02T15:23:44;3.37;;;2.83;;
15065;SDS011;7632;64.944;20.038;2024-03-02T15:26:11;3.63;;;2.90;;
15065;SDS011;7632;64.944;20.038;2024-03-02T15:28:38;3.57;;;2.90;;
15065;SDS011;7632;64.944;20.038;2024-03-02T15:31:06;4.67;;;3.03;;
15065;SDS011;7632;64.944;20.038;2024-03-02T15:33:33;3.33;;;2.90;;
15065;SDS011;7632;64.944;20.038;2024-03-02T15:35:59;4.07;;;2.77;;
15065;SDS011;7632;64.944;20.038;2024-03-02T15:38:28;3.47;;;2.83;;
15065;SDS011;7632;64.944;20.038;2024-03-02T15:40:55;3.90;;;3.07;;
15065;SDS011;7632;64.944;20.038;2024-03-02T15:43:22;3.90;;;3.00;;
15065;SDS011;7632;64.944;20.038;2024-03-02T15:45:49;3.07;;;2.73;;
15065;SDS011;7632;64.944;20.038;2024-03-02T15:48:17;4.40;;;3.50;;
15065;SDS011;7632;64.944;20.038;2024-03-02T15:50:45;3.80;;;3.07;;
15065;SDS011;7632;64.944;20.038;2024-03-02T15:53:12;3.13;;;2.77;;
15065;SDS011;7632;64.944;20.038;2024-03-02T15:55:39;3.70;;;3.20;;
15065;SDS011;7632;64.944;20.038;2024-03-02T15:58:06;3.67;;;3.20;;
15065;SDS011;7632;64.944;20.038;2024-03-02T16:00:32;3.77;;;3.00;;
15065;SDS011;7632;64.944;20.038;2024-03-02T16:03:00;3.17;;;2.77;;
15065;SDS011;7632;64.944;20.038;2024-03-02T16:05:28;3.40;;;3.10;;
15065;SDS011;7632;64.944;20.038;2024-03-02T16:07:55;2.83;;;2.53;;
15065;SDS011;7632;64.944;20.038;2024-03-02T16:10:22;3.60;;;2.93;;
15065;SDS011;7632;64.944;20.038;2024-03-02T16:12:49;3.47;;;2.67;;
15065;SDS011;7632;64.944;20.038;2024-03-02T16:15:17;3.33;;;2.80;;
15065;SDS011;7632;64.944;20.038;2024-03-02T16:17:43;4.63;;;3.03;;
15065;SDS011;7632;64.944;20.038;2024-03-02T16:20:11;3.70;;;3.37;;
15065;SDS011;7632;64.944;20.038;2024-03-02T16:22:39;3.30;;;2.90;;
15065;SDS011;7632;64.944;20.038;2024-03-02T16:25:06;3.80;;;3.07;;
15065;SDS011;7632;64.944;20.038;2024-03-02T16:27:34;4.10;;;2.77;;
15065;SDS011;7632;64.944;20.038;2024-03-02T16:30:00;2.80;;;2.60;;
15065;SDS011;7632;64.944;20.038;2024-03-02T16:32:28;4.50;;;3.10;;
15065;SDS011;7632;64.944;20.038;2024-03-02T16:34:55;3.70;;;2.93;;
15065;SDS011;7632;64.944;20.038;2024-03-02T16:37:22;5.00;;;3.57;;
15065;SDS011;7632;64.944;20.038;2024-03-02T16:39:52;3.50;;;2.93;;
15065;SDS011;7632;64.944;20.038;2024-03-02T16:42:20;3.93;;;3.33;;
15065;SDS011;7632;64.944;20.038;2024-03-02T16:44:49;5.73;;;3.30;;
15065;SDS011;7632;64.944;20.038;2024-03-02T16:47:19;3.50;;;3.10;;
15065;SDS011;7632;64.944;20.038;2024-03-02T16:49:47;4.17;;;3.53;;
15065;SDS011;7632;64.944;20.038;2024-03-02T16:52:13;3.70;;;3.30;;
15065;SDS011;7632;64.944;20.038;2024-03-02T16:54:42;4.57;;;3.10;;
15065;SDS011;7632;64.944;20.038;2024-03-02T16:57:10;3.13;;;2.83;;
15065;SDS011;7632;64.944;20.038;2024-03-02T16:59:38;3.20;;;2.90;;
15065;SDS011;7632;64.944;20.038;2024-03-02T17:02:06;3.90;;;3.17;;
15065;SDS011;7632;64.944;20.038;2024-03-02T17:04:32;3.40;;;3.10;;
15065;SDS011;7632;64.944;20.038;2024-03-02T17:06:59;4.30;;;3.40;;
15065;SDS011;7632;64.944;20.038;2024-03-02T17:09:26;3.93;;;3.07;;
15065;SDS011;7632;64.944;20.038;2024-03-02T17:11:53;4.77;;;3.07;;
15065;SDS011;7632;64.944;20.038;2024-03-02T17:14:21;3.20;;;2.90;;
15065;SDS011;7632;64.944;20.038;2024-03-02T17:16:49;3.10;;;2.80;;
15065;SDS011;7632;64.944;20.038;2024-03-02T17:19:16;4.03;;;3.00;;
15065;SDS011;7632;64.944;20.038;2024-03-02T17:21:43;3.70;;;3.30;;
15065;SDS011;7632;64.944;20.038;2024-03-02T17:24:10;3.50;;;3.10;;
15065;SDS011;7632;64.944;20.038;2024-03-02T17:26:37;3.23;;;2.90;;
15065;SDS011;7632;64.944;20.038;2024-03-02T17:29:05;4.03;;;3.17;;
15065;SDS011;7632;64.944;20.038;2024-03-02T17:31:33;4.17;;;3.13;;
15065;SDS011;7632;64.944;20.038;2024-03-02T17:34:00;3.90;;;3.27;;
15065;SDS011;7632;64.944;20.038;2024-03-02T17:36:27;3.70;;;3.30;;
15065;SDS011;7632;64.944;20.038;2024-03-02T17:38:53;3.57;;;2.83;;
15065;SDS011;7632;64.944;20.038;2024-03-02T17:41:20;6.90;;;3.30;;
15065;SDS011;7632;64.944;20.038;2024-03-02T17:43:47;4.40;;;3.20;;
15065;SDS011;7632;64.944;20.038;2024-03-02T17:46:14;4.60;;;3.17;;
15065;SDS011;7632;64.944;20.038;2024-03-02T17:48:42;4.00;;;3.50;;
15065;SDS011;7632;64.944;20.038;2024-03-02T17:51:09;3.80;;;3.13;;
15065;SDS011;7632;64.944;20.038;2024-03-02T21:18:23;6.83;;;4.60;;
15065;SDS011;7632;64.944;20.038;2024-03-02T21:20:50;6.67;;;5.00;;
15065;SDS011;7632;64.944;20.038;2024-03-02T21:23:17;7.13;;;4.90;;
15065;SDS011;7632;64.944;20.038;2024-03-02T21:25:43;6.43;;;4.73;;
15065;SDS011;7632;64.944;20.038;2024-03-02T21:28:10;6.13;;;4.90;;
15065;SDS011;7632;64.944;20.038;2024-03-02T21:30:37;7.30;;;5.20;;
15065;SDS011;7632;64.944;20.038;2024-03-02T21:33:06;6.00;;;4.80;;
15065;SDS011;7632;64.944;20.038;2024-03-02T21:35:33;6.80;;;5.07;;
15065;SDS011;7632;64.944;20.038;2024-03-02T21:38:00;6.63;;;5.37;;
15065;SDS011;7632;64.944;20.038;2024-03-02T21:40:28;7.10;;;4.83;;
15065;SDS011;7632;64.944;20.038;2024-03-02T21:42:55;6.57;;;5.10;;
15065;SDS011;7632;64.944;20.038;2024-03-02T21:45:22;6.93;;;4.90;;
15065;SDS011;7632;64.944;20.038;2024-03-02T21:47:49;6.27;;;4.80;;
15065;SDS011;7632;64.944;20.038;2024-03-02T21:50:18;7.13;;;4.97;;
15065;SDS011;7632;64.944;20.038;2024-03-02T21:52:45;7.23;;;5.00;;
15065;SDS011;7632;64.944;20.038;2024-03-02T21:55:14;8.30;;;5.20;;
15065;SDS011;7632;64.944;20.038;2024-03-02T21:57:41;9.37;;;4.97;;
15065;SDS011;7632;64.944;20.038;2024-03-02T22:00:08;8.43;;;5.40;;
15065;SDS011;7632;64.944;20.038;2024-03-02T22:02:35;7.67;;;5.40;;
15065;SDS011;7632;64.944;20.038;2024-03-02T22:05:02;8.33;;;5.47;;
15065;SDS011;7632;64.944;20.038;2024-03-02T22:07:32;6.73;;;5.03;;
15065;SDS011;7632;64.944;20.038;2024-03-02T22:09:59;7.43;;;5.10;;
15065;SDS011;7632;64.944;20.038;2024-03-02T22:12:26;7.17;;;5.00;;
15065;SDS011;7632;64.944;20.038;2024-03-02T22:14:52;5.70;;;4.60;;
15065;SDS011;7632;64.944;20.038;2024-03-02T22:17:19;6.57;;;4.80;;
15065;SDS011;7632;64.944;20.038;2024-03-02T22:19:47;8.67;;;4.90;;
15065;SDS011;7632;64.944;20.038;2024-03-02T22:22:14;6.97;;;5.37;;
15065;SDS011;7632;64.944;20.038;2024-03-02T22:24:42;7.13;;;4.90;;
15065;SDS011;7632;64.944;20.038;2024-03-02T22:27:09;6.63;;;5.20;;
15065;SDS011;7632;64.944;20.038;2024-03-02T22:29:36;7.23;;;4.70;;
15065;SDS011;7632;64.944;20.038;2024-03-02T22:32:04;5.90;;;4.53;;
15065;SDS011;7632;64.944;20.038;2024-03-02T22:34:31;7.43;;;4.80;;
15065;SDS011;7632;64.944;20.038;2024-03-02T22:36:58;5.27;;;4.43;;
15065;SDS011;7632;64.944;20.038;2024-03-02T22:39:25;6.00;;;4.70;;
15065;SDS011;7632;64.944;20.038;2024-03-02T22:41:53;6.23;;;5.00;;
15065;SDS011;7632;64.944;20.038;2024-03-02T22:44:20;5.33;;;4.47;;
15065;SDS011;7632;64.944;20.038;2024-03-02T22:46:47;6.73;;;4.40;;
15065;SDS011;7632;64.944;20.038;2024-03-02T22:49:13;6.93;;;4.40;;
15065;SDS011;7632;64.944;20.038;2024-03-02T22:51:40;5.40;;;4.50;;
15065;SDS011;7632;64.944;20.038;2024-03-02T22:54:07;5.80;;;4.37;;
15065;SDS011;7632;64.944;20.038;2024-03-02T22:56:34;5.97;;;4.43;;
15065;SDS011;7632;64.944;20.038;2024-03-02T22:59:02;4.83;;;3.80;;
15065;SDS011;7632;64.944;20.038;2024-03-02T23:01:29;5.27;;;4.30;;
15065;SDS011;7632;64.944;20.038;2024-03-02T23:03:56;6.10;;;4.53;;
15065;SDS011;7632;64.944;20.038;2024-03-02T23:06:23;5.70;;;4.10;;
15065;SDS011;7632;64.944;20.038;2024-03-02T23:08:50;4.97;;;4.30;;
15065;SDS011;7632;64.944;20.038;2024-03-02T23:11:17;5.80;;;3.97;;
15065;SDS011;7632;64.944;20.038;2024-03-02T23:13:44;5.80;;;4.73;;
15065;SDS011;7632;64.944;20.038;2024-03-02T23:16:12;4.23;;;3.83;;
15065;SDS011;7632;64.944;20.038;2024-03-02T23:18:39;4.50;;;3.97;;
15065;SDS011;7632;64.944;20.038;2024-03-02T23:21:06;5.53;;;3.97;;
15065;SDS011;7632;64.944;20.038;2024-03-02T23:23:33;5.60;;;4.03;;
15065;SDS011;7632;64.944;20.038;2024-03-02T23:25:59;4.90;;;4.07;;
15065;SDS011;7632;64.944;20.038;2024-03-02T23:28:26;5.83;;;4.43;;
15065;SDS011;7632;64.944;20.038;2024-03-02T23:30:53;5.33;;;4.30;;
15065;SDS011;7632;64.944;20.038;2024-03-02T23:33:21;4.23;;;3.80;;
15065;SDS011;7632;64.944;20.038;2024-03-02T23:35:48;4.53;;;3.80;;
15065;SDS011;7632;64.944;20.038;2024-03-02T23:38:15;4.47;;;3.90;;
15065;SDS011;7632;64.944;20.038;2024-03-02T23:40:42;4.03;;;3.63;;
15065;SDS011;7632;64.944;20.038;2024-03-02T23:43:29;5.10;;;4.13;;
15065;SDS011;7632;64.944;20.038;2024-03-02T23:45:55;4.33;;;3.73;;
15065;SDS011;7632;64.944;20.038;2024-03-02T23:48:24;5.90;;;4.40;;
15065;SDS011;7632;64.944;20.038;2024-03-02T23:50:50;4.03;;;3.63;;
15065;SDS011;7632;64.944;20.038;2024-03-02T23:53:17;4.23;;;3.77;;
15065;SDS011;7632;64.944;20.038;2024-03-02T23:55:44;5.00;;;3.83;;
15065;SDS011;7632;64.944;20.038;2024-03-02T23:58:11;4.20;;;3.53;;
